Time;durP1;ratioP1;P1;durP2;ratioP2;P2;SDS_P1;SDS_P2;PMS_P1;PMS_P2;Temp;Humidity;BMP_temperature;BMP_pressure;BME280_temperature;BME280_humidity;BME280_pressure;Samples;Min_cycle;Max_cycle;Signal;HPM_P1;HPM_P2
2023/04/25 00:00:45;;;;;;;0.00;0.00;;;8.50;99.90;;;;;;5090646;28;20228;-61
2023/04/25 00:03:11;;;;;;;0.00;0.00;;;8.50;99.90;;;;;;5090550;28;20187;-61
2023/04/25 00:05:36;;;;;;;0.00;0.00;;;8.60;99.90;;;;;;5073118;28;20172;-61
2023/04/25 00:08:03;;;;;;;0.00;0.00;;;8.50;99.90;;;;;;5090839;28;20176;-61
2023/04/25 00:10:29;;;;;;;0.00;0.00;;;8.50;99.90;;;;;;5090584;28;20706;-61
2023/04/25 00:12:54;;;;;;;0.00;0.00;;;8.60;99.90;;;;;;5090763;28;20255;-61
2023/04/25 00:15:20;;;;;;;0.00;0.00;;;8.60;99.90;;;;;;5090516;28;20179;-61
2023/04/25 00:17:45;;;;;;;0.10;0.10;;;8.60;99.90;;;;;;5090457;28;20318;-61
2023/04/25 00:20:11;;;;;;;0.00;0.00;;;8.60;99.90;;;;;;5090842;28;20635;-61
2023/04/25 00:22:37;;;;;;;0.00;0.00;;;8.50;99.90;;;;;;5090969;28;20270;-61
2023/04/25 00:25:06;;;;;;;0.25;0.25;;;8.50;99.90;;;;;;5090747;28;20242;-61
2023/04/25 00:27:31;;;;;;;0.00;0.00;;;8.50;99.90;;;;;;5090529;28;20172;-61
2023/04/25 00:29:57;;;;;;;0.00;0.00;;;8.50;99.90;;;;;;5090970;28;20192;-60
2023/04/25 00:32:22;;;;;;;0.03;0.03;;;8.50;99.90;;;;;;5090326;28;20697;-61
2023/04/25 00:34:48;;;;;;;0.00;0.00;;;8.50;99.90;;;;;;5083381;28;20192;-61
2023/04/25 00:37:13;;;;;;;0.10;0.10;;;8.40;99.90;;;;;;5093836;28;20200;-61
2023/04/25 00:39:39;;;;;;;0.00;0.00;;;8.40;99.90;;;;;;5094848;28;20567;-61
2023/04/25 00:42:05;;;;;;;0.00;0.00;;;8.40;99.90;;;;;;5088271;28;20181;-61
2023/04/25 00:44:32;;;;;;;0.03;0.03;;;8.40;99.90;;;;;;5088458;28;20179;-61
2023/04/25 00:46:57;;;;;;;0.00;0.00;;;8.40;99.90;;;;;;5094216;28;20517;-61
2023/04/25 00:49:23;;;;;;;0.00;0.00;;;8.50;99.90;;;;;;5094350;28;20237;-61
2023/04/25 00:51:49;;;;;;;0.00;0.00;;;8.50;99.90;;;;;;5093944;28;20245;-61
2023/04/25 00:54:15;;;;;;;0.00;0.00;;;8.50;99.90;;;;;;5094126;28;20237;-61
2023/04/25 00:56:41;;;;;;;0.00;0.00;;;8.50;99.90;;;;;;5094239;28;20611;-61
2023/04/25 00:59:09;;;;;;;0.17;0.17;;;8.50;99.90;;;;;;5093489;28;20304;-61
2023/04/25 01:01:35;;;;;;;0.00;0.00;;;8.50;99.90;;;;;;5094014;28;20172;-60
2023/04/25 01:04:01;;;;;;;0.00;0.00;;;8.50;99.90;;;;;;5093667;28;20195;-61
2023/04/25 01:06:27;;;;;;;0.00;0.00;;;8.50;99.90;;;;;;5093244;28;20176;-61
2023/04/25 01:08:53;;;;;;;0.00;0.00;;;8.50;99.90;;;;;;5093707;28;20221;-61
2023/04/25 01:11:18;;;;;;;0.00;0.00;;;8.50;99.90;;;;;;5093394;28;20187;-61
2023/04/25 01:13:44;;;;;;;0.00;0.00;;;8.50;99.90;;;;;;5093554;28;20202;-61
2023/04/25 01:16:10;;;;;;;0.00;0.00;;;8.50;99.90;;;;;;5093318;28;20180;-61
2023/04/25 01:18:40;;;;;;;0.10;0.10;;;8.40;99.90;;;;;;5093220;28;20222;-61
2023/04/25 01:21:09;;;;;;;0.25;0.25;;;8.40;99.90;;;;;;5093411;28;20657;-61
2023/04/25 01:23:36;;;;;;;0.00;0.00;;;8.40;99.90;;;;;;5085832;28;20598;-61
2023/04/25 01:26:02;;;;;;;0.00;0.00;;;8.40;99.90;;;;;;5093575;28;20222;-60
2023/04/25 01:28:29;;;;;;;0.00;0.00;;;8.40;99.90;;;;;;5093404;28;20288;-61
2023/04/25 01:30:55;;;;;;;0.00;0.00;;;8.40;99.90;;;;;;5088012;28;20209;-60
2023/04/25 01:33:21;;;;;;;0.00;0.00;;;8.30;99.90;;;;;;5093291;28;20180;-61
2023/04/25 01:35:47;;;;;;;0.00;0.00;;;8.30;99.90;;;;;;5093250;28;20657;-61
2023/04/25 01:38:14;;;;;;;0.00;0.00;;;8.40;99.90;;;;;;5088617;28;20204;-62
2023/04/25 01:40:40;;;;;;;0.17;0.17;;;8.30;99.90;;;;;;5087751;28;20176;-61
2023/04/25 01:43:08;;;;;;;0.00;0.00;;;8.30;99.90;;;;;;5087297;28;20246;-61
2023/04/25 01:45:36;;;;;;;0.00;0.00;;;8.30;99.90;;;;;;5093147;28;20180;-60
2023/04/25 01:48:01;;;;;;;0.00;0.00;;;8.40;99.90;;;;;;5093411;28;20260;-61
2023/04/25 01:50:27;;;;;;;0.00;0.00;;;8.40;99.90;;;;;;5093263;28;20250;-61
2023/04/25 01:52:53;;;;;;;0.00;0.00;;;8.40;99.90;;;;;;5093185;28;20180;-61
2023/04/25 01:55:19;;;;;;;0.00;0.00;;;8.40;99.90;;;;;;5092689;28;20693;-61
2023/04/25 01:57:45;;;;;;;0.03;0.03;;;8.40;99.90;;;;;;5093058;28;20211;-61
2023/04/25 02:00:11;;;;;;;0.00;0.00;;;8.40;99.90;;;;;;5093283;28;20176;-61
2023/04/25 02:02:36;;;;;;;0.00;0.00;;;8.40;99.90;;;;;;5093246;28;20176;-61
2023/04/25 02:05:02;;;;;;;0.00;0.00;;;8.40;99.90;;;;;;5074791;28;20465;-61
2023/04/25 02:07:28;;;;;;;0.00;0.00;;;8.40;99.90;;;;;;5076692;28;20218;-60
2023/04/25 02:09:53;;;;;;;0.00;0.00;;;8.30;99.90;;;;;;5092521;28;20200;-61
2023/04/25 02:12:19;;;;;;;0.00;0.00;;;8.30;99.90;;;;;;5092756;28;20234;-61
2023/04/25 02:14:45;;;;;;;0.10;0.10;;;8.30;99.90;;;;;;5092528;28;20597;-61
2023/04/25 02:17:12;;;;;;;0.00;0.00;;;8.30;99.90;;;;;;5092576;28;20241;-61
2023/04/25 02:19:38;;;;;;;0.00;0.00;;;8.30;99.90;;;;;;5092210;28;20187;-61
2023/04/25 02:22:03;;;;;;;0.00;0.00;;;8.30;99.90;;;;;;5074329;28;20184;-61
2023/04/25 02:24:29;;;;;;;0.10;0.10;;;8.30;99.90;;;;;;5092295;28;20180;-61
2023/04/25 02:26:55;;;;;;;0.00;0.00;;;8.30;99.90;;;;;;5091799;28;20194;-60
2023/04/25 02:29:21;;;;;;;0.00;0.00;;;8.30;99.90;;;;;;5091513;28;20234;-60
2023/04/25 02:31:47;;;;;;;0.00;0.00;;;8.30;99.90;;;;;;5092118;28;20172;-60
2023/04/25 02:34:12;;;;;;;0.00;0.00;;;8.20;99.90;;;;;;5092464;28;20187;-61
2023/04/25 02:36:38;;;;;;;0.00;0.00;;;8.20;99.90;;;;;;5092471;28;20224;-60
2023/04/25 02:39:03;;;;;;;0.00;0.00;;;8.20;99.90;;;;;;5087355;28;20219;-60
2023/04/25 02:41:29;;;;;;;0.00;0.00;;;8.20;99.90;;;;;;5092554;28;20176;-61
2023/04/25 02:43:55;;;;;;;0.00;0.00;;;8.20;99.90;;;;;;5080649;28;20246;-60
2023/04/25 02:46:20;;;;;;;0.00;0.00;;;8.20;99.90;;;;;;5085609;28;20183;-60
2023/04/25 02:48:46;;;;;;;0.10;0.10;;;8.20;99.90;;;;;;5092198;28;20702;-60
2023/04/25 02:51:12;;;;;;;0.00;0.00;;;8.20;99.90;;;;;;5092116;28;20708;-60
2023/04/25 02:53:37;;;;;;;0.00;0.00;;;8.20;99.90;;;;;;5092233;28;20184;-60
2023/04/25 02:56:03;;;;;;;0.00;0.00;;;8.20;99.90;;;;;;5092208;28;20203;-61
2023/04/25 02:58:29;;;;;;;0.10;0.10;;;8.20;99.90;;;;;;5091514;28;20670;-61
2023/04/25 03:00:55;;;;;;;0.10;0.10;;;8.20;99.90;;;;;;5091882;28;20184;-61
2023/04/25 03:03:21;;;;;;;0.00;0.00;;;8.20;99.90;;;;;;5091891;28;20631;-61
2023/04/25 03:05:51;;;;;;;0.00;0.00;;;8.20;99.90;;;;;;5091804;28;20581;-61
2023/04/25 03:08:17;;;;;;;0.00;0.00;;;8.10;99.90;;;;;;5091851;28;20211;-61
2023/04/25 03:10:44;;;;;;;0.00;0.00;;;8.10;99.90;;;;;;5091437;28;20198;-61
2023/04/25 03:13:10;;;;;;;0.00;0.00;;;8.10;99.90;;;;;;5091364;28;20184;-61
2023/04/25 03:15:36;;;;;;;0.00;0.00;;;8.10;99.90;;;;;;5091854;28;20681;-61
2023/04/25 03:18:02;;;;;;;0.10;0.10;;;8.00;99.90;;;;;;5090669;28;20261;-61
2023/04/25 03:20:27;;;;;;;0.00;0.00;;;8.00;99.90;;;;;;5091362;28;20176;-61
2023/04/25 03:22:53;;;;;;;0.00;0.00;;;8.00;99.90;;;;;;5091858;28;20187;-63
2023/04/25 03:25:19;;;;;;;0.00;0.00;;;8.00;99.90;;;;;;5089932;28;20180;-61
2023/04/25 03:27:45;;;;;;;0.20;0.20;;;7.90;99.90;;;;;;5090944;28;20231;-61
2023/04/25 03:30:11;;;;;;;0.00;0.00;;;7.90;99.90;;;;;;5089493;28;20184;-61
2023/04/25 03:32:36;;;;;;;0.00;0.00;;;7.90;99.90;;;;;;5091037;28;20188;-60
2023/04/25 03:35:03;;;;;;;0.03;0.03;;;7.90;99.90;;;;;;5072226;28;21067;-61
2023/04/25 03:37:28;;;;;;;0.00;0.00;;;7.90;99.90;;;;;;5090882;28;20222;-60
2023/04/25 03:39:54;;;;;;;0.00;0.00;;;7.80;99.90;;;;;;5090105;28;20184;-60
2023/04/25 03:42:22;;;;;;;0.00;0.00;;;7.80;99.90;;;;;;5089120;28;20203;-59
2023/04/25 03:44:48;;;;;;;0.10;0.10;;;7.80;99.90;;;;;;5083379;28;20195;-57
2023/04/25 03:47:14;;;;;;;0.00;0.00;;;7.80;99.90;;;;;;5090747;28;20180;-65
2023/04/25 03:49:39;;;;;;;0.00;0.00;;;7.80;99.90;;;;;;5089414;28;20653;-63
2023/04/25 03:52:05;;;;;;;0.00;0.00;;;7.80;99.90;;;;;;5087094;28;20271;-59
2023/04/25 03:54:30;;;;;;;0.03;0.03;;;7.80;99.90;;;;;;5089670;28;20184;-60
2023/04/25 03:56:56;;;;;;;0.00;0.00;;;7.80;99.90;;;;;;5087568;28;20678;-63
2023/04/25 03:59:21;;;;;;;0.00;0.00;;;7.80;99.90;;;;;;5090673;28;20208;-62
2023/04/25 04:01:47;;;;;;;0.00;0.00;;;7.80;99.90;;;;;;5090952;28;20285;-62
2023/04/25 04:04:12;;;;;;;0.00;0.00;;;7.90;99.90;;;;;;5090634;28;20180;-59
2023/04/25 04:06:38;;;;;;;0.00;0.00;;;7.80;99.90;;;;;;5090647;28;20187;-58
2023/04/25 04:09:04;;;;;;;0.10;0.10;;;7.80;99.90;;;;;;5089671;28;20180;-59
2023/04/25 04:11:29;;;;;;;0.00;0.00;;;7.80;99.90;;;;;;5091237;28;20293;-58
2023/04/25 04:13:55;;;;;;;0.00;0.00;;;7.80;99.90;;;;;;5073028;28;20180;-59
2023/04/25 04:16:20;;;;;;;0.00;0.00;;;7.80;99.90;;;;;;5090476;28;20186;-58
2023/04/25 04:18:46;;;;;;;0.05;0.05;;;7.90;99.90;;;;;;5090867;28;20582;-58
2023/04/25 04:21:11;;;;;;;0.00;0.00;;;7.90;99.90;;;;;;5072599;28;20188;-58
2023/04/25 04:23:37;;;;;;;0.00;0.00;;;7.90;99.90;;;;;;5090902;28;20249;-58
2023/04/25 04:26:03;;;;;;;0.00;0.00;;;7.90;99.90;;;;;;5090905;28;20168;-58
2023/04/25 04:28:28;;;;;;;0.08;0.08;;;7.90;99.90;;;;;;5090913;28;20240;-58
2023/04/25 04:30:55;;;;;;;0.03;0.03;;;7.90;99.90;;;;;;5091208;28;20169;-58
2023/04/25 04:33:21;;;;;;;0.00;0.00;;;7.90;99.90;;;;;;5091046;28;20180;-58
2023/04/25 04:35:47;;;;;;;0.00;0.00;;;7.90;99.90;;;;;;5072991;28;20237;-58
2023/04/25 04:38:15;;;;;;;0.00;0.00;;;7.90;99.90;;;;;;5090952;28;20220;-58
2023/04/25 04:40:42;;;;;;;0.00;0.00;;;8.00;99.90;;;;;;5091137;28;20203;-58
2023/04/25 04:43:10;;;;;;;0.00;0.00;;;8.00;99.90;;;;;;5090952;28;20181;-58
2023/04/25 04:45:37;;;;;;;0.00;0.00;;;8.00;99.90;;;;;;5091205;28;20176;-58
2023/04/25 04:48:05;;;;;;;0.00;0.00;;;8.00;99.90;;;;;;5090997;28;20570;-58
2023/04/25 04:50:32;;;;;;;0.00;0.00;;;8.00;99.90;;;;;;5090982;28;20177;-58
2023/04/25 04:52:58;;;;;;;0.00;0.00;;;8.00;99.90;;;;;;5090966;28;20521;-59
2023/04/25 04:55:23;;;;;;;0.00;0.00;;;8.00;99.90;;;;;;5090744;28;20247;-59
2023/04/25 04:57:49;;;;;;;0.00;0.00;;;8.00;99.90;;;;;;5087606;28;20203;-59
2023/04/25 05:00:15;;;;;;;0.00;0.00;;;8.00;99.90;;;;;;5088585;28;20217;-59
2023/04/25 05:02:41;;;;;;;0.00;0.00;;;8.00;99.90;;;;;;5084155;28;20172;-59
2023/04/25 05:05:07;;;;;;;0.10;0.10;;;8.00;99.90;;;;;;5090662;28;20206;-58
2023/04/25 05:07:33;;;;;;;0.00;0.00;;;8.00;99.90;;;;;;5091254;28;20270;-58
2023/04/25 05:09:59;;;;;;;0.10;0.10;;;8.00;99.90;;;;;;5090679;28;20433;-59
2023/04/25 05:12:24;;;;;;;0.00;0.00;;;8.00;99.90;;;;;;5090535;28;20536;-59
2023/04/25 05:14:50;;;;;;;0.00;0.00;;;8.00;99.90;;;;;;5090569;28;20184;-59
2023/04/25 05:17:15;;;;;;;0.05;0.05;;;8.10;99.90;;;;;;5090542;28;20206;-58
2023/04/25 05:19:41;;;;;;;0.00;0.00;;;8.10;99.90;;;;;;5090627;28;20179;-58
2023/04/25 05:22:06;;;;;;;0.00;0.00;;;8.10;99.90;;;;;;5094059;28;20558;-59
2023/04/25 05:24:32;;;;;;;0.00;0.00;;;8.10;99.90;;;;;;5094277;28;20198;-58
2023/04/25 05:26:57;;;;;;;0.00;0.00;;;8.10;99.90;;;;;;5094323;28;20204;-59
2023/04/25 05:29:23;;;;;;;0.00;0.00;;;8.20;99.90;;;;;;5093613;28;20649;-59
2023/04/25 05:31:49;;;;;;;0.00;0.00;;;8.30;99.90;;;;;;5093872;28;20638;-59
2023/04/25 05:34:15;;;;;;;0.10;0.10;;;8.30;99.90;;;;;;5093836;28;20187;-59
2023/04/25 05:36:40;;;;;;;0.00;0.00;;;8.40;99.90;;;;;;5075730;28;20653;-59
2023/04/25 05:39:06;;;;;;;0.00;0.00;;;8.50;99.90;;;;;;5093627;28;20224;-59
2023/04/25 05:41:32;;;;;;;0.00;0.00;;;8.60;99.90;;;;;;5093611;28;20176;-59
2023/04/25 05:43:57;;;;;;;0.00;0.00;;;8.60;99.90;;;;;;5093708;28;20259;-58
2023/04/25 05:46:22;;;;;;;0.00;0.00;;;8.70;99.90;;;;;;5093615;28;20877;-59
2023/04/25 05:48:48;;;;;;;0.22;0.22;;;8.80;99.90;;;;;;5093629;28;20180;-58
2023/04/25 05:51:14;;;;;;;0.00;0.00;;;8.90;99.90;;;;;;5093588;28;20203;-59
2023/04/25 05:53:39;;;;;;;0.00;0.00;;;9.00;99.90;;;;;;5093543;28;20203;-59
2023/04/25 05:56:05;;;;;;;0.00;0.00;;;9.00;99.90;;;;;;5093315;28;20180;-59
2023/04/25 05:58:30;;;;;;;0.00;0.00;;;9.00;99.90;;;;;;5093389;28;20298;-60
2023/04/25 06:00:56;;;;;;;0.00;0.00;;;9.10;99.90;;;;;;5093301;28;20190;-60
2023/04/25 06:03:22;;;;;;;0.00;0.00;;;9.20;99.90;;;;;;5093116;28;20171;-60
2023/04/25 06:05:47;;;;;;;0.00;0.00;;;9.30;99.90;;;;;;5087457;28;20172;-60
2023/04/25 06:08:13;;;;;;;0.00;0.00;;;9.40;99.90;;;;;;5076196;28;20666;-59
2023/04/25 06:10:39;;;;;;;0.00;0.00;;;9.50;99.90;;;;;;5084535;28;20301;-60
2023/04/25 06:13:05;;;;;;;0.65;0.20;;;9.70;99.90;;;;;;5093016;28;20172;-60
2023/04/25 06:15:32;;;;;;;0.00;0.00;;;9.90;99.90;;;;;;5093143;28;20650;-59
2023/04/25 06:17:57;;;;;;;0.00;0.00;;;10.00;99.90;;;;;;5092785;28;20204;-59
2023/04/25 06:20:24;;;;;;;0.00;0.00;;;10.20;99.90;;;;;;5092702;28;20475;-59
2023/04/25 06:22:51;;;;;;;0.00;0.00;;;10.40;99.90;;;;;;5092998;28;20218;-59
2023/04/25 06:25:17;;;;;;;0.00;0.00;;;10.60;99.90;;;;;;5093147;28;20558;-59
2023/04/25 06:27:42;;;;;;;0.03;0.03;;;10.80;99.90;;;;;;5092733;28;20224;-59
2023/04/25 06:30:08;;;;;;;0.00;0.00;;;11.00;99.90;;;;;;5092966;28;20188;-59
2023/04/25 06:32:34;;;;;;;0.10;0.10;;;11.10;99.90;;;;;;5091737;28;20172;-60
2023/04/25 06:35:00;;;;;;;0.00;0.00;;;11.00;99.90;;;;;;5092898;28;20216;-59
2023/04/25 06:37:25;;;;;;;0.00;0.00;;;11.10;99.90;;;;;;5092703;28;20258;-60
2023/04/25 06:39:51;;;;;;;0.00;0.00;;;11.00;99.90;;;;;;5092867;28;20164;-59
2023/04/25 06:42:17;;;;;;;0.00;0.00;;;10.80;99.90;;;;;;5092572;28;20168;-59
2023/04/25 06:44:42;;;;;;;0.00;0.00;;;10.70;99.90;;;;;;5092570;28;20606;-59
2023/04/25 06:47:08;;;;;;;0.00;0.00;;;10.60;99.90;;;;;;5092917;28;20172;-59
2023/04/25 06:49:33;;;;;;;0.00;0.00;;;10.60;99.90;;;;;;5092892;28;20223;-59
2023/04/25 06:51:59;;;;;;;0.00;0.00;;;10.60;99.90;;;;;;5092925;28;20313;-60
2023/04/25 06:54:26;;;;;;;0.00;0.00;;;10.80;99.90;;;;;;5092624;28;20586;-60
2023/04/25 06:56:52;;;;;;;0.00;0.00;;;10.80;99.90;;;;;;5092855;28;20650;-60
2023/04/25 06:59:18;;;;;;;0.05;0.05;;;10.70;99.90;;;;;;5092597;28;20203;-60
2023/04/25 07:01:43;;;;;;;0.00;0.00;;;10.70;99.90;;;;;;5092576;28;20173;-59
2023/04/25 07:04:09;;;;;;;0.00;0.00;;;10.60;99.90;;;;;;5092542;28;20257;-59
2023/04/25 07:06:37;;;;;;;0.00;0.00;;;10.40;99.90;;;;;;5092641;28;20194;-60
2023/04/25 07:09:04;;;;;;;0.00;0.00;;;10.30;99.90;;;;;;5092468;28;20183;-59
2023/04/25 07:11:30;;;;;;;0.10;0.10;;;10.10;99.90;;;;;;5075790;28;20181;-60
2023/04/25 07:13:55;;;;;;;0.00;0.00;;;10.10;99.90;;;;;;5072123;28;20252;-59
2023/04/25 07:16:21;;;;;;;0.00;0.00;;;10.10;99.90;;;;;;5091380;28;20550;-59
2023/04/25 07:18:46;;;;;;;0.00;0.00;;;10.10;99.90;;;;;;5074280;28;20227;-60
2023/04/25 07:21:12;;;;;;;0.15;0.15;;;10.10;99.90;;;;;;5092280;28;20168;-60
2023/04/25 07:23:40;;;;;;;0.00;0.00;;;10.20;99.90;;;;;;5092568;28;20643;-60
2023/04/25 07:26:06;;;;;;;0.45;0.45;;;10.20;99.90;;;;;;5092161;28;20168;-60
2023/04/25 07:28:31;;;;;;;0.25;0.25;;;10.30;99.90;;;;;;5092053;28;20582;-60
2023/04/25 07:30:58;;;;;;;0.00;0.00;;;10.40;99.90;;;;;;5092148;28;20262;-59
2023/04/25 07:33:23;;;;;;;0.00;0.00;;;10.40;99.90;;;;;;5091904;28;20267;-60
2023/04/25 07:35:49;;;;;;;0.00;0.00;;;10.50;99.90;;;;;;5091996;28;20595;-60
2023/04/25 07:38:15;;;;;;;0.10;0.10;;;10.50;99.90;;;;;;5091738;28;20257;-60
2023/04/25 07:40:41;;;;;;;0.05;0.05;;;10.60;99.90;;;;;;5091858;28;20168;-60
2023/04/25 07:43:06;;;;;;;0.00;0.00;;;10.70;99.90;;;;;;5091530;28;20183;-60
2023/04/25 07:45:32;;;;;;;0.00;0.00;;;10.90;99.90;;;;;;5091882;28;20168;-60
2023/04/25 07:47:57;;;;;;;0.10;0.05;;;11.10;99.90;;;;;;5091904;28;20190;-60
2023/04/25 07:50:23;;;;;;;0.00;0.00;;;11.20;99.90;;;;;;5091612;28;20634;-60
2023/04/25 07:52:49;;;;;;;0.00;0.00;;;11.30;99.90;;;;;;5071602;28;20176;-60
2023/04/25 07:55:14;;;;;;;0.00;0.00;;;11.40;99.90;;;;;;5071526;28;20234;-60
2023/04/25 07:57:40;;;;;;;0.00;0.00;;;11.40;99.90;;;;;;5071435;28;20227;-60
2023/04/25 08:00:09;;;;;;;0.00;0.00;;;11.30;99.90;;;;;;5071602;28;20363;-60
2023/04/25 08:02:35;;;;;;;0.00;0.00;;;11.20;99.90;;;;;;5078374;28;20654;-60
2023/04/25 08:05:00;;;;;;;0.00;0.00;;;11.20;99.90;;;;;;5091420;28;20172;-60
2023/04/25 08:07:26;;;;;;;0.00;0.00;;;11.20;99.90;;;;;;5091568;28;20248;-60
2023/04/25 08:09:52;;;;;;;0.00;0.00;;;11.10;99.90;;;;;;5091645;28;20180;-60
2023/04/25 08:12:17;;;;;;;0.00;0.00;;;11.10;99.90;;;;;;5073731;28;20263;-60
2023/04/25 08:14:43;;;;;;;0.00;0.00;;;11.00;99.90;;;;;;5071260;28;20218;-60
2023/04/25 08:17:09;;;;;;;0.00;0.00;;;11.00;99.90;;;;;;5071274;28;20177;-59
2023/04/25 08:19:35;;;;;;;0.00;0.00;;;10.90;99.90;;;;;;5071437;28;20189;-60
2023/04/25 08:22:00;;;;;;;0.00;0.00;;;10.90;99.90;;;;;;5070956;28;20173;-60
2023/04/25 08:24:26;;;;;;;0.00;0.00;;;10.80;99.90;;;;;;5071242;28;20180;-60
2023/04/25 08:26:52;;;;;;;0.00;0.00;;;10.80;99.90;;;;;;5071299;28;20174;-60
2023/04/25 08:29:17;;;;;;;0.05;0.05;;;10.80;99.90;;;;;;5071093;28;20229;-60
2023/04/25 08:31:43;;;;;;;0.00;0.00;;;10.70;99.90;;;;;;5071092;28;20184;-60
2023/04/25 08:34:09;;;;;;;0.00;0.00;;;10.70;99.90;;;;;;5071167;28;20255;-59
2023/04/25 08:36:35;;;;;;;0.00;0.00;;;10.70;99.90;;;;;;5071267;28;20172;-59
2023/04/25 08:39:00;;;;;;;0.00;0.00;;;10.80;99.90;;;;;;5070990;28;20216;-59
2023/04/25 08:41:27;;;;;;;0.03;0.03;;;10.80;99.90;;;;;;5071009;28;20173;-59
2023/04/25 08:43:55;;;;;;;0.32;0.32;;;10.90;99.90;;;;;;5071208;28;20181;-59
2023/04/25 08:46:22;;;;;;;0.00;0.00;;;10.90;99.90;;;;;;5070835;28;20180;-59
2023/04/25 08:48:50;;;;;;;0.00;0.00;;;10.90;99.90;;;;;;5053551;28;20682;-59
2023/04/25 08:51:24;;;;;;;0.00;0.00;;;11.00;99.90;;;;;;5078046;28;20188;-59
2023/04/25 08:53:52;;;;;;;0.00;0.00;;;11.00;99.90;;;;;;5091323;28;20263;-59
2023/04/25 08:56:20;;;;;;;0.38;0.38;;;11.10;99.90;;;;;;5093699;28;20180;-60
2023/04/25 08:58:48;;;;;;;0.00;0.00;;;11.10;99.90;;;;;;5094972;28;20224;-59
2023/04/25 09:01:14;;;;;;;0.00;0.00;;;11.10;99.90;;;;;;5094800;28;20258;-59
2023/04/25 09:03:40;;;;;;;0.00;0.00;;;11.10;99.90;;;;;;5094887;28;20187;-59
2023/04/25 09:06:05;;;;;;;0.00;0.00;;;11.00;99.90;;;;;;5094897;28;20179;-59
2023/04/25 09:08:31;;;;;;;0.00;0.00;;;11.00;99.90;;;;;;5094685;28;20180;-59
2023/04/25 09:10:57;;;;;;;0.00;0.00;;;10.90;99.90;;;;;;5093033;28;20544;-59
2023/04/25 09:13:28;;;;;;;0.00;0.00;;;10.80;99.90;;;;;;5090941;28;20180;-59
2023/04/25 09:15:58;;;;;;;0.00;0.00;;;10.70;99.90;;;;;;5091160;28;20206;-59
2023/04/25 09:18:28;;;;;;;0.10;0.10;;;10.60;99.90;;;;;;5093864;28;20224;-59
2023/04/25 09:20:56;;;;;;;0.00;0.00;;;10.60;99.90;;;;;;5074282;28;20188;-60
2023/04/25 09:23:23;;;;;;;0.00;0.00;;;10.60;99.90;;;;;;5074189;28;20188;-59
2023/04/25 09:25:50;;;;;;;0.00;0.00;;;10.60;99.90;;;;;;5074252;28;20545;-59
2023/04/25 09:28:15;;;;;;;0.00;0.00;;;10.60;99.90;;;;;;5073918;28;20316;-59
2023/04/25 09:30:42;;;;;;;0.00;0.00;;;10.60;99.90;;;;;;5074095;28;20260;-59
2023/04/25 09:33:10;;;;;;;0.00;0.00;;;10.60;99.90;;;;;;5074165;28;20192;-60
2023/04/25 09:35:38;;;;;;;0.00;0.00;;;10.70;99.90;;;;;;5074192;28;20199;-59
2023/04/25 09:38:12;;;;;;;0.00;0.00;;;10.80;99.90;;;;;;5073799;28;20201;-59
2023/04/25 09:40:47;;;;;;;0.00;0.00;;;10.80;99.90;;;;;;5056143;28;20184;-59
2023/04/25 09:43:23;;;;;;;0.00;0.00;;;10.90;99.90;;;;;;5074009;28;20165;-59
2023/04/25 09:45:51;;;;;;;0.00;0.00;;;10.90;99.90;;;;;;5074024;28;20712;-60
2023/04/25 09:48:21;;;;;;;0.00;0.00;;;11.00;99.90;;;;;;5073779;28;20185;-59
2023/04/25 09:51:04;;;;;;;0.00;0.00;;;11.10;99.90;;;;;;5076985;28;20176;-59
2023/04/25 09:53:30;;;;;;;0.00;0.00;;;11.20;99.90;;;;;;5094062;28;20178;-59
2023/04/25 09:55:56;;;;;;;0.00;0.00;;;11.30;99.90;;;;;;5093972;28;20176;-59
2023/04/25 09:58:24;;;;;;;0.00;0.00;;;11.30;99.90;;;;;;5093517;28;20196;-59
2023/04/25 10:00:51;;;;;;;0.00;0.00;;;11.20;99.90;;;;;;5093807;28;20176;-60
2023/04/25 10:03:18;;;;;;;0.00;0.00;;;11.20;99.90;;;;;;5093551;28;20546;-61
2023/04/25 10:05:45;;;;;;;0.05;0.05;;;11.20;99.90;;;;;;5093448;28;20179;-60
2023/04/25 10:08:13;;;;;;;0.00;0.00;;;11.20;99.90;;;;;;5093610;28;20233;-60
2023/04/25 10:10:40;;;;;;;0.00;0.00;;;11.20;99.90;;;;;;5093796;28;20179;-59
2023/04/25 10:13:06;;;;;;;0.00;0.00;;;11.20;99.90;;;;;;5093708;28;20180;-60
2023/04/25 10:15:36;;;;;;;0.00;0.00;;;11.20;99.90;;;;;;5075614;28;20183;-60
2023/04/25 10:18:02;;;;;;;0.00;0.00;;;11.20;99.90;;;;;;5093287;28;20208;-59
2023/04/25 10:20:28;;;;;;;0.00;0.00;;;11.40;99.90;;;;;;5093685;28;20184;-60
2023/04/25 10:22:58;;;;;;;0.10;0.10;;;11.50;99.90;;;;;;5085593;28;20271;-60
2023/04/25 10:25:24;;;;;;;0.00;0.00;;;11.80;99.90;;;;;;5073000;28;20532;-60
2023/04/25 10:27:53;;;;;;;0.00;0.00;;;12.20;99.90;;;;;;5072803;28;20224;-60
2023/04/25 10:30:19;;;;;;;0.03;0.03;;;12.50;99.90;;;;;;5073045;28;20541;-60
2023/04/25 10:32:45;;;;;;;0.00;0.00;;;12.70;99.90;;;;;;5072908;28;20177;-60
2023/04/25 10:35:12;;;;;;;0.00;0.00;;;12.70;99.90;;;;;;5072940;28;20262;-60
2023/04/25 10:37:37;;;;;;;0.05;0.05;;;12.50;99.90;;;;;;5072911;28;20207;-60
2023/04/25 10:40:09;;;;;;;0.00;0.00;;;12.40;99.90;;;;;;5072697;28;20188;-60
2023/04/25 10:42:35;;;;;;;0.00;0.00;;;12.20;99.90;;;;;;5072887;28;20173;-60
2023/04/25 10:45:04;;;;;;;0.20;0.20;;;12.00;99.90;;;;;;5072606;28;20670;-59
2023/04/25 10:47:36;;;;;;;0.00;0.00;;;12.00;99.90;;;;;;5072665;28;20215;-60
2023/04/25 10:50:08;;;;;;;0.00;0.00;;;12.20;99.90;;;;;;5072415;28;20692;-60
2023/04/25 10:52:33;;;;;;;0.05;0.05;;;12.40;99.90;;;;;;5090634;28;20179;-60
2023/04/25 10:55:00;;;;;;;0.00;0.00;;;12.50;99.90;;;;;;5092891;28;20165;-60
2023/04/25 10:57:43;;;;;;;0.00;0.00;;;12.50;99.90;;;;;;5092521;28;20180;-60
2023/04/25 11:00:11;;;;;;;0.00;0.00;;;12.40;99.90;;;;;;5092732;28;20190;-60
2023/04/25 11:02:40;;;;;;;0.00;0.00;;;12.40;99.90;;;;;;5092555;28;20179;-60
2023/04/25 11:05:06;;;;;;;0.00;0.00;;;12.40;99.90;;;;;;5092613;28;20180;-60
2023/04/25 11:07:56;;;;;;;0.00;0.00;;;12.40;99.90;;;;;;5092601;28;20176;-59
2023/04/25 11:10:25;;;;;;;0.00;0.00;;;12.40;99.90;;;;;;5092309;28;20172;-59
2023/04/25 11:12:51;;;;;;;0.32;0.32;;;12.50;99.90;;;;;;5092459;28;20169;-59
2023/04/25 11:15:16;;;;;;;0.00;0.00;;;12.20;99.90;;;;;;5074080;28;20180;-59
2023/04/25 11:17:43;;;;;;;0.00;0.00;;;12.00;99.90;;;;;;5091571;28;20587;-59
2023/04/25 11:20:11;;;;;;;0.10;0.10;;;11.70;99.90;;;;;;5092295;28;20184;-59
2023/04/25 11:22:37;;;;;;;0.00;0.00;;;11.60;99.90;;;;;;5086905;28;20172;-59
2023/04/25 11:25:07;;;;;;;0.32;0.32;;;11.40;99.90;;;;;;5071811;28;20177;-59
2023/04/25 11:27:34;;;;;;;0.00;0.00;;;11.40;99.90;;;;;;5071827;28;20224;-59
2023/04/25 11:30:13;;;;;;;0.00;0.00;;;11.40;99.90;;;;;;5071739;28;20180;-60
2023/04/25 11:32:41;;;;;;;0.00;0.00;;;11.40;99.90;;;;;;5071949;28;20188;-59
2023/04/25 11:35:07;;;;;;;0.00;0.00;;;11.40;99.90;;;;;;5071739;28;20171;-59
2023/04/25 11:37:33;;;;;;;0.00;0.00;;;11.20;99.90;;;;;;5071663;28;20181;-60
2023/04/25 11:40:00;;;;;;;0.10;0.10;;;11.10;99.90;;;;;;5071788;28;20594;-59
2023/04/25 11:42:25;;;;;;;0.00;0.00;;;10.80;99.90;;;;;;5071619;28;20302;-59
2023/04/25 11:44:51;;;;;;;0.38;0.38;;;10.60;99.90;;;;;;5053784;28;20487;-59
2023/04/25 11:47:17;;;;;;;0.00;0.00;;;10.60;99.90;;;;;;5071637;28;20187;-59
2023/04/25 11:49:42;;;;;;;0.00;0.00;;;10.50;99.90;;;;;;5071633;28;20318;-59
2023/04/25 11:52:08;;;;;;;0.20;0.20;;;10.50;99.90;;;;;;5085849;28;20209;-59
2023/04/25 11:54:37;;;;;;;0.00;0.00;;;10.60;99.90;;;;;;5091813;28;20180;-59
2023/04/25 11:57:03;;;;;;;0.00;0.00;;;10.60;99.90;;;;;;5091643;28;20176;-60
2023/04/25 11:59:29;;;;;;;0.10;0.10;;;10.70;99.90;;;;;;5091433;28;20247;-59
2023/04/25 12:01:54;;;;;;;0.00;0.00;;;10.90;99.90;;;;;;5091655;28;20574;-59
2023/04/25 12:04:22;;;;;;;0.00;0.00;;;11.10;99.90;;;;;;5091487;28;20180;-59
2023/04/25 12:06:51;;;;;;;0.00;0.00;;;11.30;99.90;;;;;;5091625;28;20217;-59
2023/04/25 12:09:27;;;;;;;0.38;0.38;;;11.40;99.90;;;;;;5091502;28;20194;-59
2023/04/25 12:11:54;;;;;;;0.00;0.00;;;11.40;99.90;;;;;;5091770;28;20207;-60
2023/04/25 12:14:28;;;;;;;0.00;0.00;;;11.30;99.90;;;;;;5091115;28;20184;-59
2023/04/25 12:17:00;;;;;;;0.00;0.00;;;11.30;99.90;;;;;;5081137;28;20163;-59
2023/04/25 12:19:31;;;;;;;0.00;0.00;;;11.00;99.90;;;;;;5091478;28;20204;-59
2023/04/25 12:21:56;;;;;;;0.00;0.00;;;11.00;99.90;;;;;;5091257;28;20179;-59
2023/04/25 12:24:25;;;;;;;0.00;0.00;;;10.80;99.90;;;;;;5089292;28;20188;-59
2023/04/25 12:27:03;;;;;;;0.10;0.10;;;10.80;99.90;;;;;;5071311;28;20230;-59
2023/04/25 12:29:31;;;;;;;0.00;0.00;;;11.00;99.90;;;;;;5091407;28;20215;-60
2023/04/25 12:31:57;;;;;;;0.00;0.00;;;11.50;99.90;;;;;;5095112;28;20180;-59
2023/04/25 12:34:23;;;;;;;0.00;0.00;;;11.90;99.90;;;;;;5095201;28;20172;-59
2023/04/25 12:36:51;;;;;;;0.00;0.00;;;12.20;99.90;;;;;;5095399;28;20172;-59
2023/04/25 12:39:16;;;;;;;0.00;0.00;;;12.50;99.90;;;;;;5095283;28;20216;-59
2023/04/25 12:41:42;;;;;;;0.05;0.05;;;12.60;99.90;;;;;;5095140;28;20199;-60
2023/04/25 12:44:08;;;;;;;0.00;0.00;;;13.00;99.90;;;;;;5095076;28;20208;-60
2023/04/25 12:46:33;;;;;;;0.00;0.00;;;13.20;99.90;;;;;;5095314;28;20172;-59
2023/04/25 12:49:00;;;;;;;0.10;0.10;;;13.10;99.90;;;;;;5095120;28;20320;-59